Air Resources Laboratory banner image
Air Resources Laboratory web site National Oceanic and Atmospheric Administration (NOAA)

dc metar


KDCA 102252Z 17007KT 10SM -TSRA BKN050CB BKN100 OVC150 24/23 A3005 RMK AO2 LTG
 DSNT ALQDS SLP175 OCNL LTGICCCCG W TS W MOV E P0007 T02440228=